Time;durP1;ratioP1;P1;durP2;ratioP2;P2;SDS_P1;SDS_P2;PMS_P1;PMS_P2;Temp;Humidity;BMP_temperature;BMP_pressure;BME280_temperature;BME280_humidity;BME280_pressure;Samples;Min_cycle;Max_cycle;Signal;HPM_P1;HPM_P2
2023/04/10 00:02:16;;;;;;;19.42;13.23;;;8.60;99.90;;;;;;5006712;28;20050;-79
2023/04/10 00:04:42;;;;;;;19.98;11.32;;;8.60;99.90;;;;;;5004211;28;20055;-80
2023/04/10 00:07:07;;;;;;;19.80;11.45;;;8.60;99.90;;;;;;5005821;28;20469;-79
2023/04/10 00:09:33;;;;;;;25.88;11.65;;;8.60;99.90;;;;;;5006757;28;20489;-79
2023/04/10 00:11:59;;;;;;;30.35;13.40;;;8.60;99.90;;;;;;5006493;28;20095;-79
2023/04/10 00:14:25;;;;;;;28.58;13.35;;;8.60;99.90;;;;;;5004891;28;20632;-80
2023/04/10 00:16:51;;;;;;;21.65;13.90;;;8.50;99.90;;;;;;5007190;28;20042;-78
2023/04/10 00:19:17;;;;;;;30.73;18.27;;;8.60;99.90;;;;;;5004817;28;20290;-79
2023/04/10 00:21:42;;;;;;;32.00;15.23;;;8.50;99.90;;;;;;5004789;28;20050;-80
2023/04/10 00:24:08;;;;;;;29.58;14.02;;;8.50;99.90;;;;;;5006303;28;20049;-79
2023/04/10 00:26:37;;;;;;;29.88;18.83;;;8.50;99.90;;;;;;5006168;28;20460;-80
2023/04/10 00:29:02;;;;;;;20.35;13.48;;;8.50;99.90;;;;;;5005408;28;20358;-77
2023/04/10 00:31:29;;;;;;;28.00;17.35;;;8.50;99.90;;;;;;5004611;28;20180;-79
2023/04/10 00:33:54;;;;;;;28.23;14.85;;;8.40;99.90;;;;;;5005890;28;20042;-78
2023/04/10 00:36:20;;;;;;;24.75;16.27;;;8.40;99.90;;;;;;5005640;28;20038;-79
2023/04/10 00:38:48;;;;;;;25.60;14.88;;;8.40;99.90;;;;;;5004726;28;20058;-78
2023/04/10 00:41:15;;;;;;;25.05;14.77;;;8.40;99.90;;;;;;5006260;28;20567;-78
2023/04/10 00:43:41;;;;;;;28.33;16.77;;;8.30;99.90;;;;;;5005856;28;20650;-79
2023/04/10 00:46:07;;;;;;;26.42;16.45;;;8.40;99.90;;;;;;5006047;28;20038;-78
2023/04/10 00:48:33;;;;;;;26.48;15.02;;;8.30;99.90;;;;;;4988546;28;20487;-79
2023/04/10 00:51:00;;;;;;;23.30;14.52;;;8.30;99.90;;;;;;5005357;28;20049;-79
2023/04/10 00:53:25;;;;;;;23.95;16.08;;;8.30;99.90;;;;;;5005197;28;20088;-78
2023/04/10 00:55:52;;;;;;;21.00;13.32;;;8.20;99.90;;;;;;5004138;28;20057;-79
2023/04/10 00:58:18;;;;;;;27.35;16.42;;;8.30;99.90;;;;;;5005530;28;20069;-80
2023/04/10 01:00:43;;;;;;;24.20;14.10;;;8.20;99.90;;;;;;5005538;28;20143;-79
2023/04/10 01:03:11;;;;;;;22.90;14.25;;;8.20;99.90;;;;;;5005392;28;20053;-80
2023/04/10 01:06:15;;;;;;;19.50;15.20;;;8.10;99.90;;;;;;5002942;28;20085;-79
2023/04/10 01:08:59;;;;;;;24.85;16.88;;;8.20;99.90;;;;;;4950424;28;20053;-78
2023/04/10 01:11:46;;;;;;;22.88;13.15;;;8.10;99.90;;;;;;5003974;28;20050;-78
2023/04/10 01:14:45;;;;;;;22.27;13.27;;;8.10;99.90;;;;;;5003838;28;20101;-80
2023/04/10 01:17:26;;;;;;;22.77;14.35;;;8.10;99.90;;;;;;4988882;28;20050;-79
2023/04/10 01:20:01;;;;;;;22.65;14.85;;;8.10;99.90;;;;;;5003586;28;20408;-80
2023/04/10 01:22:53;;;;;;;27.73;15.68;;;8.10;99.90;;;;;;4987467;28;20050;-79
2023/04/10 01:25:39;;;;;;;24.08;15.55;;;8.10;99.90;;;;;;4978922;28;20077;-78
2023/04/10 01:28:25;;;;;;;28.08;16.65;;;8.00;99.90;;;;;;4993436;28;20133;-78
2023/04/10 01:30:55;;;;;;;25.13;17.08;;;8.10;99.90;;;;;;5004488;28;20048;-80
2023/04/10 01:33:28;;;;;;;23.27;13.43;;;8.00;99.90;;;;;;5005604;28;20030;-79
2023/04/10 01:35:57;;;;;;;20.50;14.93;;;8.00;99.90;;;;;;5004158;28;20100;-79
2023/04/10 01:38:25;;;;;;;21.75;16.10;;;8.00;99.90;;;;;;5005423;28;20092;-79
2023/04/10 01:40:53;;;;;;;21.92;15.45;;;8.00;99.90;;;;;;5005417;28;20129;-79
2023/04/10 01:43:20;;;;;;;19.20;14.85;;;8.00;99.90;;;;;;5005249;28;20045;-78
2023/04/10 01:45:49;;;;;;;28.25;16.70;;;8.00;99.90;;;;;;5004774;28;20049;-78
2023/04/10 01:48:17;;;;;;;20.83;12.77;;;8.00;99.90;;;;;;5003376;28;20049;-79
2023/04/10 01:50:44;;;;;;;26.17;16.13;;;8.00;99.90;;;;;;5002828;28;20069;-80
2023/04/10 01:53:11;;;;;;;28.95;16.00;;;7.90;99.90;;;;;;5004574;28;20088;-79
2023/04/10 01:55:37;;;;;;;25.23;15.30;;;8.00;99.90;;;;;;4987017;28;20077;-79
2023/04/10 01:58:06;;;;;;;27.63;15.32;;;8.00;99.90;;;;;;5003714;28;20046;-80
2023/04/10 02:00:42;;;;;;;26.45;14.40;;;7.90;99.90;;;;;;5003120;28;20046;-79
2023/04/10 02:03:08;;;;;;;23.85;14.25;;;7.90;99.90;;;;;;5003128;28;20042;-80
2023/04/10 02:05:43;;;;;;;21.73;14.52;;;7.90;99.90;;;;;;5003454;28;20041;-80
2023/04/10 02:08:19;;;;;;;22.75;14.70;;;7.90;99.90;;;;;;5003238;28;20042;-77
2023/04/10 02:10:53;;;;;;;23.50;15.15;;;7.90;99.90;;;;;;5003547;28;20088;-79
2023/04/10 02:13:21;;;;;;;24.65;14.75;;;7.90;99.90;;;;;;5003511;28;20046;-80
2023/04/10 02:15:48;;;;;;;26.88;14.70;;;7.80;99.90;;;;;;5003925;28;20456;-79
2023/04/10 02:18:17;;;;;;;21.52;13.95;;;7.80;99.90;;;;;;5004246;28;20048;-79
2023/04/10 02:20:43;;;;;;;23.20;14.88;;;7.80;99.90;;;;;;5002275;28;20042;-78
2023/04/10 02:23:09;;;;;;;25.73;14.57;;;7.80;99.90;;;;;;5004569;28;20077;-79
2023/04/10 02:25:35;;;;;;;20.45;13.02;;;7.80;99.90;;;;;;5003054;28;20058;-78
2023/04/10 02:28:05;;;;;;;25.90;18.20;;;7.70;99.90;;;;;;5003204;28;20484;-79
2023/04/10 02:30:31;;;;;;;16.08;13.65;;;7.70;99.90;;;;;;5002550;28;20496;-79
2023/04/10 02:32:57;;;;;;;24.33;13.73;;;7.70;99.90;;;;;;5004298;28;20484;-78
2023/04/10 02:35:23;;;;;;;26.27;16.02;;;7.70;99.90;;;;;;5004061;28;20103;-79
2023/04/10 02:37:49;;;;;;;26.52;14.80;;;7.70;99.90;;;;;;5002699;28;20029;-79
2023/04/10 02:40:15;;;;;;;20.75;13.45;;;7.70;99.90;;;;;;5004483;28;20077;-79
2023/04/10 02:42:41;;;;;;;26.00;17.48;;;7.60;99.90;;;;;;5003323;28;20049;-80
2023/04/10 02:45:08;;;;;;;18.42;13.27;;;7.70;99.90;;;;;;5003747;28;20038;-79
2023/04/10 02:47:34;;;;;;;24.10;17.02;;;7.60;99.90;;;;;;4995937;28;20064;-80
2023/04/10 02:49:59;;;;;;;20.95;14.05;;;7.60;99.90;;;;;;5003460;28;20589;-80
2023/04/10 02:52:25;;;;;;;19.42;14.85;;;7.60;99.90;;;;;;5003661;28;20393;-78
2023/04/10 02:54:51;;;;;;;27.00;14.93;;;7.60;99.90;;;;;;5004390;28;20046;-77
2023/04/10 02:57:16;;;;;;;38.70;14.88;;;7.60;99.90;;;;;;4986345;28;20046;-79
2023/04/10 02:59:43;;;;;;;20.50;15.43;;;7.60;99.90;;;;;;5002263;28;20041;-78
2023/04/10 03:02:09;;;;;;;16.38;14.43;;;7.60;99.90;;;;;;5002148;28;20092;-79
2023/04/10 03:04:34;;;;;;;23.63;15.18;;;7.60;99.90;;;;;;5003094;28;20041;-79
2023/04/10 03:07:00;;;;;;;19.05;13.68;;;7.60;99.90;;;;;;5004185;28;20651;-78
2023/04/10 03:09:26;;;;;;;17.80;12.75;;;7.50;99.90;;;;;;5002347;28;20500;-79
2023/04/10 03:11:51;;;;;;;21.40;14.32;;;7.50;99.90;;;;;;5004271;28;20030;-78
2023/04/10 03:14:17;;;;;;;19.35;14.07;;;7.60;99.90;;;;;;5002689;28;20524;-79
2023/04/10 03:16:43;;;;;;;26.67;14.80;;;7.50;99.90;;;;;;5003876;28;20077;-79
2023/04/10 03:19:08;;;;;;;20.13;13.93;;;7.50;99.90;;;;;;5003156;28;20042;-77
2023/04/10 03:21:34;;;;;;;18.00;14.05;;;7.50;99.90;;;;;;5004131;28;20361;-78
2023/04/10 03:23:59;;;;;;;21.42;14.75;;;7.50;99.90;;;;;;5003938;28;20041;-77
2023/04/10 03:26:26;;;;;;;20.65;14.48;;;7.50;99.90;;;;;;5003637;28;20603;-78
2023/04/10 03:28:52;;;;;;;21.67;15.40;;;7.50;99.90;;;;;;5004252;28;20042;-79
2023/04/10 03:31:17;;;;;;;24.30;13.13;;;7.50;99.90;;;;;;5002644;28;20060;-79
2023/04/10 03:33:43;;;;;;;16.95;15.10;;;7.50;99.90;;;;;;5001404;28;20136;-80
2023/04/10 03:36:10;;;;;;;21.50;15.02;;;7.50;99.90;;;;;;5003853;28;20400;-77
2023/04/10 03:38:35;;;;;;;19.95;14.32;;;7.40;99.90;;;;;;5002229;28;20049;-79
2023/04/10 03:41:01;;;;;;;26.55;14.23;;;7.40;99.90;;;;;;5003688;28;20057;-79
2023/04/10 03:43:28;;;;;;;17.02;14.07;;;7.40;99.90;;;;;;4985599;28;20042;-79
2023/04/10 03:45:54;;;;;;;23.23;14.25;;;7.40;99.90;;;;;;5003210;28;20050;-79
2023/04/10 03:48:20;;;;;;;20.80;12.90;;;7.40;99.90;;;;;;5004020;28;20045;-80
2023/04/10 03:50:45;;;;;;;25.88;16.10;;;7.40;99.90;;;;;;5002250;28;20054;-80
2023/04/10 03:53:11;;;;;;;26.42;15.85;;;7.40;99.90;;;;;;5003758;28;20042;-79
2023/04/10 03:55:37;;;;;;;21.60;13.93;;;7.40;99.90;;;;;;5003352;28;20045;-79
2023/04/10 03:58:04;;;;;;;14.70;12.70;;;7.40;99.90;;;;;;5003285;28;20492;-79
2023/04/10 04:00:30;;;;;;;18.05;12.02;;;7.40;99.90;;;;;;5003962;28;20038;-79
2023/04/10 04:02:57;;;;;;;19.10;14.00;;;7.40;99.90;;;;;;5005625;28;20540;-79
2023/04/10 04:05:23;;;;;;;18.48;13.18;;;7.40;99.90;;;;;;5006303;28;20482;-77
2023/04/10 04:07:49;;;;;;;17.92;13.45;;;7.40;99.90;;;;;;5006672;28;20045;-79
2023/04/10 04:10:14;;;;;;;22.27;13.48;;;7.40;99.90;;;;;;5007064;28;20050;-79
2023/04/10 04:12:40;;;;;;;18.27;13.48;;;7.40;99.90;;;;;;5006616;28;20424;-78
2023/04/10 04:15:06;;;;;;;18.55;14.18;;;7.40;99.90;;;;;;5005569;28;20505;-78
2023/04/10 04:17:32;;;;;;;19.08;12.18;;;7.40;99.90;;;;;;5005475;28;20046;-79
2023/04/10 04:19:57;;;;;;;17.38;11.90;;;7.40;99.90;;;;;;5005794;28;20041;-79
2023/04/10 04:22:23;;;;;;;24.45;14.13;;;7.40;99.90;;;;;;5005312;28;20103;-78
2023/04/10 04:24:48;;;;;;;17.45;11.38;;;7.30;99.90;;;;;;5005075;28;20090;-78
2023/04/10 04:27:14;;;;;;;18.30;13.98;;;7.30;99.90;;;;;;5005587;28;20132;-79
2023/04/10 04:29:40;;;;;;;18.60;13.65;;;7.30;99.90;;;;;;5004724;28;20718;-79
2023/04/10 04:32:06;;;;;;;17.35;15.55;;;7.30;99.90;;;;;;5006618;28;20113;-79
2023/04/10 04:34:31;;;;;;;22.25;12.60;;;7.30;99.90;;;;;;5005292;28;20432;-79
2023/04/10 04:36:57;;;;;;;13.20;10.88;;;7.40;99.90;;;;;;5006185;28;20072;-79
2023/04/10 04:39:22;;;;;;;17.63;12.23;;;7.30;99.90;;;;;;5005524;28;20495;-79
2023/04/10 04:41:48;;;;;;;17.77;11.90;;;7.40;99.90;;;;;;4988239;28;20509;-80
2023/04/10 04:44:14;;;;;;;15.13;12.45;;;7.30;99.90;;;;;;5005025;28;20042;-80
2023/04/10 04:46:39;;;;;;;23.25;15.60;;;7.40;99.90;;;;;;5003590;28;20151;-80
2023/04/10 04:49:05;;;;;;;16.70;11.73;;;7.30;99.90;;;;;;4985763;28;20082;-79
2023/04/10 04:51:30;;;;;;;17.23;11.38;;;7.40;99.90;;;;;;4992477;28;20049;-77
2023/04/10 04:53:56;;;;;;;15.68;11.90;;;7.30;99.90;;;;;;5004776;28;20049;-79
2023/04/10 04:56:22;;;;;;;17.23;12.25;;;7.30;99.90;;;;;;5006157;28;20135;-79
2023/04/10 04:58:47;;;;;;;21.60;12.15;;;7.30;99.90;;;;;;5005745;28;20498;-80
2023/04/10 05:01:13;;;;;;;14.57;12.10;;;7.30;99.90;;;;;;5004240;28;20504;-80
2023/04/10 05:03:38;;;;;;;22.33;13.90;;;7.30;99.90;;;;;;5004662;28;20187;-79
2023/04/10 05:06:04;;;;;;;14.73;11.80;;;7.30;99.90;;;;;;5006065;28;20255;-80
2023/04/10 05:08:30;;;;;;;20.05;11.55;;;7.30;99.90;;;;;;5005271;28;20117;-79
2023/04/10 05:10:55;;;;;;;13.45;10.82;;;7.30;99.90;;;;;;5005158;28;20046;-80
2023/04/10 05:13:21;;;;;;;26.48;12.90;;;7.30;99.90;;;;;;5006040;28;20107;-77
2023/04/10 05:15:47;;;;;;;16.00;12.30;;;7.30;99.90;;;;;;5004904;28;20522;-79
2023/04/10 05:18:13;;;;;;;17.30;9.63;;;7.30;99.90;;;;;;5003278;28;20137;-79
2023/04/10 05:20:39;;;;;;;12.68;10.30;;;7.30;99.90;;;;;;5005184;28;20121;-79
2023/04/10 05:23:04;;;;;;;14.38;11.90;;;7.30;99.90;;;;;;5004147;28;20049;-79
2023/04/10 05:25:30;;;;;;;15.85;10.77;;;7.30;99.90;;;;;;5004740;28;20506;-79
2023/04/10 05:27:56;;;;;;;11.38;10.18;;;7.30;99.90;;;;;;5005382;28;20034;-79
2023/04/10 05:30:21;;;;;;;9.93;8.88;;;7.30;99.90;;;;;;5005625;28;20038;-79
2023/04/10 05:32:47;;;;;;;16.30;9.82;;;7.30;99.90;;;;;;5004793;28;20076;-79
2023/04/10 05:35:13;;;;;;;15.27;11.55;;;7.30;99.90;;;;;;5002900;28;20050;-79
2023/04/10 05:37:38;;;;;;;17.60;8.57;;;7.40;99.90;;;;;;5004973;28;20046;-79
2023/04/10 05:40:05;;;;;;;15.50;10.73;;;7.40;99.90;;;;;;5003649;28;20037;-79
2023/04/10 05:42:30;;;;;;;14.98;11.68;;;7.40;99.90;;;;;;5004620;28;20042;-78
2023/04/10 05:44:56;;;;;;;14.32;9.73;;;7.40;99.90;;;;;;5005242;28;20045;-82
2023/04/10 05:47:22;;;;;;;11.25;8.23;;;7.40;99.90;;;;;;4998814;28;20116;-79
2023/04/10 05:49:47;;;;;;;16.17;10.02;;;7.40;99.90;;;;;;4983934;28;20042;-78
2023/04/10 05:52:13;;;;;;;15.38;10.60;;;7.40;99.90;;;;;;4985397;28;20041;-79
2023/04/10 05:54:38;;;;;;;11.82;10.25;;;7.40;99.90;;;;;;4995351;28;20053;-78
2023/04/10 05:57:04;;;;;;;12.32;10.68;;;7.40;99.90;;;;;;5004460;28;20053;-79
2023/04/10 05:59:30;;;;;;;11.43;8.43;;;7.40;99.90;;;;;;5002898;28;20038;-78
2023/04/10 06:01:56;;;;;;;15.88;8.73;;;7.40;99.90;;;;;;5003610;28;20058;-79
2023/04/10 06:04:22;;;;;;;9.60;7.05;;;7.50;99.90;;;;;;4998433;28;20033;-80
2023/04/10 06:06:48;;;;;;;13.90;10.30;;;7.50;99.90;;;;;;5011849;28;20069;-80
2023/04/10 06:09:13;;;;;;;10.70;7.97;;;7.50;99.90;;;;;;5002873;28;20050;-79
2023/04/10 06:11:39;;;;;;;13.77;8.10;;;7.50;99.90;;;;;;4995221;28;20132;-79
2023/04/10 06:14:04;;;;;;;11.30;8.23;;;7.50;99.90;;;;;;4986732;28;20790;-79
2023/04/10 06:16:30;;;;;;;10.65;7.82;;;7.50;99.90;;;;;;4986263;28;20424;-78
2023/04/10 06:18:56;;;;;;;12.25;8.68;;;7.60;99.90;;;;;;5000384;28;20040;-80
2023/04/10 06:21:22;;;;;;;14.70;9.25;;;7.60;99.90;;;;;;4983476;28;20706;-79
2023/04/10 06:23:48;;;;;;;15.52;9.27;;;7.60;99.90;;;;;;4992019;28;20057;-79
2023/04/10 06:26:13;;;;;;;11.98;7.97;;;7.60;99.90;;;;;;4986364;28;20469;-79
2023/04/10 06:28:39;;;;;;;8.57;7.65;;;7.60;99.90;;;;;;5004145;28;20443;-79
2023/04/10 06:31:08;;;;;;;13.65;7.43;;;7.70;99.90;;;;;;5003879;28;20133;-81
2023/04/10 06:33:36;;;;;;;12.82;7.82;;;7.70;99.90;;;;;;5002830;28;20373;-78
2023/04/10 06:36:02;;;;;;;10.52;7.50;;;7.70;99.90;;;;;;5002652;28;20050;-77
2023/04/10 06:38:28;;;;;;;14.02;7.88;;;7.70;99.90;;;;;;5003998;28;20054;-77
2023/04/10 06:40:54;;;;;;;12.60;8.77;;;7.70;99.90;;;;;;5004581;28;20042;-77
2023/04/10 06:43:19;;;;;;;11.48;8.00;;;7.80;99.90;;;;;;5003053;28;20042;-77
2023/04/10 06:45:45;;;;;;;10.00;7.00;;;7.80;99.90;;;;;;5001853;28;20231;-76
2023/04/10 06:48:11;;;;;;;10.25;7.18;;;7.90;99.90;;;;;;5002800;28;20046;-77
2023/04/10 06:50:37;;;;;;;13.75;7.55;;;7.90;99.90;;;;;;5001540;28;20046;-77
2023/04/10 06:53:02;;;;;;;10.73;6.43;;;7.90;99.90;;;;;;5003576;28;20041;-78
2023/04/10 06:55:28;;;;;;;9.48;7.00;;;8.00;99.90;;;;;;5003325;28;20489;-78
2023/04/10 06:57:55;;;;;;;8.63;5.95;;;8.00;99.90;;;;;;5002652;28;20037;-78
2023/04/10 07:00:22;;;;;;;7.75;5.85;;;8.10;99.90;;;;;;5001101;28;20081;-78
2023/04/10 07:02:47;;;;;;;9.13;7.60;;;8.10;99.90;;;;;;5002306;28;20085;-80
2023/04/10 07:05:14;;;;;;;9.23;6.70;;;8.20;99.90;;;;;;5002627;28;20073;-79
2023/04/10 07:07:40;;;;;;;11.27;7.10;;;8.20;99.90;;;;;;4999301;28;20396;-79
2023/04/10 07:10:06;;;;;;;9.98;8.13;;;8.30;99.90;;;;;;4992901;28;20046;-80
2023/04/10 07:12:32;;;;;;;12.32;8.27;;;8.40;99.90;;;;;;4993718;28;20374;-78
2023/04/10 07:14:58;;;;;;;8.48;6.78;;;8.40;99.90;;;;;;4984113;28;20120;-79
2023/04/10 07:17:24;;;;;;;9.77;5.95;;;8.50;99.90;;;;;;4984489;28;20057;-78
2023/04/10 07:19:50;;;;;;;8.18;6.82;;;8.50;99.90;;;;;;4983347;28;20053;-79
2023/04/10 07:22:15;;;;;;;9.68;7.20;;;8.50;99.90;;;;;;4989358;28;20045;-79
2023/04/10 07:24:41;;;;;;;8.95;6.88;;;8.60;99.90;;;;;;5003794;28;20045;-78
2023/04/10 07:27:07;;;;;;;10.52;8.02;;;8.70;99.90;;;;;;5002358;28;20501;-78
2023/04/10 07:29:32;;;;;;;11.38;7.20;;;8.70;99.90;;;;;;5003189;28;20038;-79
2023/04/10 07:31:58;;;;;;;9.82;6.35;;;8.70;99.90;;;;;;5003771;28;20122;-78
2023/04/10 07:34:24;;;;;;;12.82;7.78;;;8.80;99.90;;;;;;5003134;28;20041;-79
2023/04/10 07:36:50;;;;;;;10.77;6.82;;;8.80;99.90;;;;;;5006854;28;20034;-79
2023/04/10 07:39:16;;;;;;;9.77;6.07;;;8.80;99.90;;;;;;5007706;28;20042;-78
2023/04/10 07:41:42;;;;;;;10.13;6.00;;;8.80;99.90;;;;;;5001069;28;20493;-78
2023/04/10 07:44:08;;;;;;;8.32;5.78;;;8.90;99.90;;;;;;4987882;28;20041;-77
2023/04/10 07:46:33;;;;;;;8.80;6.97;;;8.90;99.90;;;;;;4986158;28;20046;-78
2023/04/10 07:48:59;;;;;;;10.25;7.50;;;9.00;99.90;;;;;;5006488;28;20127;-78
2023/04/10 07:51:26;;;;;;;10.63;5.78;;;9.00;99.90;;;;;;5003345;28;20507;-77
2023/04/10 07:53:52;;;;;;;7.43;5.15;;;9.00;99.90;;;;;;5005071;28;20037;-76
2023/04/10 07:56:18;;;;;;;10.13;6.20;;;9.00;99.90;;;;;;5004986;28;20121;-78
2023/04/10 07:58:44;;;;;;;9.48;6.18;;;9.10;99.90;;;;;;5003435;28;20042;-78
2023/04/10 08:01:10;;;;;;;9.73;7.22;;;9.10;99.90;;;;;;4991233;28;20069;-78
2023/04/10 08:03:40;;;;;;;7.82;4.97;;;9.20;99.90;;;;;;5005903;28;20558;-78
2023/04/10 08:06:08;;;;;;;7.75;5.43;;;9.20;99.90;;;;;;5006911;28;20120;-79
2023/04/10 08:08:38;;;;;;;10.27;4.88;;;9.20;99.90;;;;;;5004863;28;20361;-79
2023/04/10 08:11:21;;;;;;;8.60;5.35;;;9.30;99.90;;;;;;5005719;28;20042;-78
2023/04/10 08:13:47;;;;;;;9.75;5.50;;;9.30;99.90;;;;;;5005524;28;20104;-78
2023/04/10 08:16:13;;;;;;;8.68;4.57;;;9.40;99.90;;;;;;5005454;28;20184;-78
2023/04/10 08:18:39;;;;;;;8.90;5.47;;;9.40;99.90;;;;;;4997375;28;20104;-78
2023/04/10 08:21:05;;;;;;;9.50;4.82;;;9.50;99.90;;;;;;5004237;28;20050;-79
2023/04/10 08:23:30;;;;;;;6.43;4.68;;;9.50;99.90;;;;;;4991139;28;20140;-78
2023/04/10 08:25:56;;;;;;;6.07;5.00;;;9.60;99.90;;;;;;4994605;28;20513;-79
2023/04/10 08:28:21;;;;;;;8.15;5.40;;;9.60;99.90;;;;;;5001050;28;20448;-76
2023/04/10 08:30:47;;;;;;;10.68;6.32;;;9.60;99.90;;;;;;4997081;28;20045;-76
2023/04/10 08:33:12;;;;;;;9.32;6.25;;;9.60;99.90;;;;;;5015856;28;20038;-77
2023/04/10 08:35:38;;;;;;;7.15;5.95;;;9.70;99.90;;;;;;5003772;28;20065;-77
2023/04/10 08:38:04;;;;;;;8.95;5.18;;;9.70;99.90;;;;;;5006029;28;20073;-77
2023/04/10 08:40:29;;;;;;;14.00;6.38;;;9.80;99.90;;;;;;5004920;28;20455;-79
2023/04/10 08:42:55;;;;;;;14.43;5.35;;;9.90;99.90;;;;;;5003014;28;20140;-75
2023/04/10 08:45:21;;;;;;;6.35;5.18;;;9.90;99.90;;;;;;5004671;28;20042;-79
2023/04/10 08:47:49;;;;;;;8.00;4.55;;;10.00;99.90;;;;;;5000161;28;20568;-81
2023/04/10 08:50:16;;;;;;;11.45;5.43;;;10.00;99.90;;;;;;4998806;28;20054;-78
2023/04/10 08:52:44;;;;;;;6.50;4.68;;;10.00;99.90;;;;;;5004433;28;20077;-79
2023/04/10 08:55:12;;;;;;;8.65;4.93;;;10.10;99.90;;;;;;5002708;28;20041;-79
2023/04/10 08:57:38;;;;;;;8.98;5.40;;;10.10;99.90;;;;;;4985024;28;20480;-78
2023/04/10 09:00:05;;;;;;;9.07;4.63;;;10.20;99.90;;;;;;4992285;28;20038;-79
2023/04/10 09:02:31;;;;;;;10.50;4.32;;;10.20;99.90;;;;;;5003528;28;20430;-78
2023/04/10 09:04:59;;;;;;;8.27;4.65;;;10.20;99.90;;;;;;4984941;28;20041;-80
2023/04/10 09:07:25;;;;;;;8.90;4.15;;;10.20;99.90;;;;;;5005118;28;20038;-75
2023/04/10 09:09:51;;;;;;;9.98;5.78;;;10.20;99.90;;;;;;5003694;28;20034;-79
2023/04/10 09:12:17;;;;;;;11.57;6.28;;;10.30;99.90;;;;;;4993673;28;20456;-81
2023/04/10 09:14:42;;;;;;;6.93;4.47;;;10.30;99.90;;;;;;5003516;28;20132;-79
2023/04/10 09:17:17;;;;;;;7.28;4.90;;;10.30;99.90;;;;;;4999937;28;20045;-79
2023/04/10 09:19:48;;;;;;;8.68;5.20;;;10.40;99.90;;;;;;5011423;28;20041;-79
2023/04/10 09:22:15;;;;;;;7.53;4.63;;;10.40;99.90;;;;;;4992232;28;20179;-77
2023/04/10 09:24:43;;;;;;;7.07;4.57;;;10.50;99.90;;;;;;4996272;28;20042;-79
2023/04/10 09:27:09;;;;;;;8.60;4.35;;;10.50;99.90;;;;;;5000863;28;20057;-79
2023/04/10 09:29:44;;;;;;;7.93;5.38;;;10.60;99.90;;;;;;4994768;28;20357;-79
2023/04/10 09:32:11;;;;;;;6.93;4.55;;;10.60;99.90;;;;;;4994670;28;20091;-78
2023/04/10 09:34:52;;;;;;;7.63;4.88;;;10.70;99.90;;;;;;4995211;28;20324;-80
2023/04/10 09:37:19;;;;;;;8.47;4.73;;;10.70;99.90;;;;;;4989810;28;20038;-78
2023/04/10 09:39:45;;;;;;;10.95;5.20;;;10.70;99.90;;;;;;5015339;28;20459;-81
2023/04/10 09:42:11;;;;;;;8.13;4.30;;;10.80;99.90;;;;;;4989810;28;20048;-82
2023/04/10 09:44:38;;;;;;;5.82;4.03;;;10.80;99.90;;;;;;4990782;28;20145;-83
2023/04/10 09:47:13;;;;;;;6.07;3.90;;;10.80;99.90;;;;;;5007238;28;20393;-82
2023/04/10 09:49:52;;;;;;;6.18;3.42;;;10.90;99.90;;;;;;4980457;28;20057;-83
2023/04/10 09:52:20;;;;;;;6.75;3.58;;;11.00;99.90;;;;;;5002065;28;20058;-79
2023/04/10 09:54:46;;;;;;;5.85;3.72;;;11.10;99.90;;;;;;4995024;28;20564;-78
2023/04/10 09:57:17;;;;;;;6.95;4.28;;;11.20;99.90;;;;;;5016106;28;20099;-80
2023/04/10 09:59:47;;;;;;;6.63;3.70;;;11.20;99.90;;;;;;5004281;28;20408;-79
2023/04/10 10:02:15;;;;;;;8.07;5.35;;;11.20;99.90;;;;;;4996014;28;20336;-78
2023/04/10 10:04:44;;;;;;;7.50;4.07;;;11.20;99.90;;;;;;5000003;28;20044;-79
2023/04/10 10:07:09;;;;;;;8.93;4.05;;;11.20;99.90;;;;;;4996516;28;20046;-79
2023/04/10 10:09:36;;;;;;;8.15;5.65;;;11.20;99.90;;;;;;4989511;28;20054;-91
2023/04/10 10:12:03;;;;;;;6.70;4.13;;;11.20;99.90;;;;;;4980032;28;20049;-83
2023/04/10 10:14:30;;;;;;;7.63;4.18;;;11.20;99.90;;;;;;4983655;28;20054;-78
2023/04/10 10:17:04;;;;;;;6.50;3.17;;;11.20;99.90;;;;;;4990065;28;20544;-79
2023/04/10 10:19:43;;;;;;;7.03;4.47;;;11.20;99.90;;;;;;5002560;28;20038;-77
2023/04/10 10:22:10;;;;;;;6.05;3.88;;;11.20;99.90;;;;;;5004732;28;20056;-77
2023/04/10 10:24:38;;;;;;;7.68;4.32;;;11.30;99.90;;;;;;5004398;28;20786;-78
2023/04/10 10:27:08;;;;;;;10.18;4.25;;;11.30;99.90;;;;;;5002875;28;20045;-78
2023/04/10 10:29:38;;;;;;;6.85;4.47;;;11.40;99.90;;;;;;5003569;28;20100;-78
2023/04/10 10:32:05;;;;;;;4.63;3.13;;;11.40;99.90;;;;;;5003635;28;20037;-78
2023/04/10 10:34:32;;;;;;;6.07;4.65;;;11.50;99.90;;;;;;4975412;28;20133;-78
2023/04/10 10:36:58;;;;;;;6.10;3.47;;;11.50;99.90;;;;;;5002718;28;20289;-78
2023/04/10 10:39:53;;;;;;;7.10;4.07;;;11.60;99.90;;;;;;5000780;28;20045;-75
2023/04/10 10:42:41;;;;;;;6.63;4.05;;;11.60;99.90;;;;;;4977673;28;20129;-77
2023/04/10 10:45:12;;;;;;;6.93;4.28;;;11.70;99.90;;;;;;5004088;28;20493;-77
2023/04/10 10:47:49;;;;;;;7.35;5.20;;;11.70;99.90;;;;;;4994715;28;20030;-77
2023/04/10 10:50:15;;;;;;;6.80;3.20;;;11.80;99.90;;;;;;5007196;28;20108;-76
2023/04/10 10:52:49;;;;;;;7.55;3.95;;;11.80;99.90;;;;;;4992174;28;20547;-73
2023/04/10 10:55:24;;;;;;;10.63;4.28;;;11.80;99.90;;;;;;4996649;28;20049;-74
2023/04/10 10:58:07;;;;;;;8.07;3.75;;;11.80;99.90;;;;;;4982613;28;20050;-73
2023/04/10 11:00:51;;;;;;;10.70;4.70;;;11.80;99.90;;;;;;4983475;28;20184;-73
2023/04/10 11:03:17;;;;;;;8.95;4.22;;;11.90;99.90;;;;;;4984418;28;20084;-73
2023/04/10 11:05:57;;;;;;;8.90;4.78;;;11.80;99.90;;;;;;5003327;28;20741;-73
2023/04/10 11:08:32;;;;;;;7.25;3.80;;;11.90;99.90;;;;;;5003343;28;20057;-76
2023/04/10 11:11:02;;;;;;;7.78;3.55;;;11.90;99.90;;;;;;5007184;28;20064;-77
2023/04/10 11:13:28;;;;;;;10.60;4.72;;;11.90;99.90;;;;;;5005358;28;20049;-77
2023/04/10 11:15:56;;;;;;;13.07;7.45;;;12.00;99.90;;;;;;5008372;28;20856;-77
2023/04/10 11:18:43;;;;;;;7.93;4.97;;;11.90;99.90;;;;;;5005404;28;20073;-76
2023/04/10 11:21:13;;;;;;;9.57;4.40;;;12.00;99.90;;;;;;5007921;28;20133;-75
2023/04/10 11:23:54;;;;;;;5.35;3.00;;;12.00;99.90;;;;;;5007564;28;20117;-75
2023/04/10 11:26:35;;;;;;;7.97;4.05;;;12.10;99.90;;;;;;4990466;28;20053;-79
2023/04/10 11:29:02;;;;;;;6.20;3.40;;;12.10;99.90;;;;;;5006083;28;20049;-80
2023/04/10 11:31:28;;;;;;;6.18;3.15;;;12.20;99.90;;;;;;5001036;28;20056;-79
2023/04/10 11:33:57;;;;;;;7.47;3.67;;;12.20;99.90;;;;;;4979725;28;20037;-79
2023/04/10 11:36:23;;;;;;;8.02;3.90;;;12.20;99.90;;;;;;5007824;28;20050;-77
2023/04/10 11:38:59;;;;;;;5.88;3.45;;;12.30;99.90;;;;;;5007013;28;20045;-78
2023/04/10 11:41:30;;;;;;;6.32;3.10;;;12.30;99.90;;;;;;5005049;28;20042;-75
2023/04/10 11:43:57;;;;;;;6.65;3.17;;;12.30;99.90;;;;;;5005205;28;20048;-80
2023/04/10 11:46:22;;;;;;;5.15;3.22;;;12.30;99.90;;;;;;5001796;28;20100;-79
2023/04/10 11:48:58;;;;;;;5.57;3.05;;;12.40;99.90;;;;;;5004909;28;20038;-79
2023/04/10 11:51:26;;;;;;;8.90;4.60;;;12.40;99.90;;;;;;5005945;28;20115;-77
2023/04/10 11:54:07;;;;;;;5.68;2.92;;;12.40;99.90;;;;;;5007315;28;20037;-77
2023/04/10 11:56:33;;;;;;;7.97;3.53;;;12.40;99.90;;;;;;5004109;28;20108;-78
2023/04/10 11:59:01;;;;;;;6.65;2.95;;;12.50;99.90;;;;;;4991865;28;20619;-78
2023/04/10 12:01:27;;;;;;;7.53;3.72;;;12.50;99.90;;;;;;5004672;28;20653;-76
2023/04/10 12:03:53;;;;;;;5.28;3.63;;;12.60;99.90;;;;;;5006389;28;20133;-81
2023/04/10 12:06:19;;;;;;;6.63;4.05;;;12.60;99.90;;;;;;4994196;28;20525;-79
2023/04/10 12:08:48;;;;;;;4.28;2.60;;;12.60;99.90;;;;;;4992057;28;20046;-81
2023/04/10 12:11:17;;;;;;;6.32;2.83;;;12.60;99.90;;;;;;4987759;28;20054;-79
2023/04/10 12:13:43;;;;;;;6.45;2.63;;;12.70;99.90;;;;;;5003194;28;20066;-79
2023/04/10 12:16:09;;;;;;;7.40;3.05;;;12.70;99.90;;;;;;4995923;28;20046;-80
2023/04/10 12:18:35;;;;;;;5.70;3.88;;;12.70;99.90;;;;;;4986166;28;20117;-77
2023/04/10 12:21:02;;;;;;;5.75;2.95;;;12.80;99.90;;;;;;5001669;28;20045;-77
2023/04/10 12:23:29;;;;;;;5.10;3.17;;;12.80;99.90;;;;;;4989243;28;20046;-77
2023/04/10 12:26:14;;;;;;;9.70;4.05;;;12.80;99.90;;;;;;5001051;28;20077;-77
2023/04/10 12:28:41;;;;;;;4.50;2.42;;;12.80;99.90;;;;;;5003581;28;20042;-79
2023/04/10 12:31:08;;;;;;;7.43;3.08;;;12.80;99.90;;;;;;5002295;28;20100;-75
2023/04/10 12:33:34;;;;;;;4.85;3.45;;;12.80;99.90;;;;;;5005036;28;20057;-76
2023/04/10 12:36:00;;;;;;;6.45;3.63;;;12.80;99.90;;;;;;5001587;28;20116;-79
2023/04/10 12:38:36;;;;;;;3.40;2.30;;;12.80;99.90;;;;;;4994027;28;20037;-76
2023/04/10 12:41:02;;;;;;;5.82;3.05;;;12.80;99.90;;;;;;5000799;28;20037;-77
2023/04/10 12:43:33;;;;;;;4.78;3.20;;;12.80;99.90;;;;;;4991295;28;20052;-77
2023/04/10 12:45:59;;;;;;;5.63;3.63;;;12.90;99.90;;;;;;5004281;28;20084;-77
2023/04/10 12:48:25;;;;;;;5.25;3.92;;;12.90;99.90;;;;;;4989658;28;20046;-78